createdAt,value
2018-07-10T00:03:32.260Z,20.60
2018-07-10T00:08:15.268Z,20.60
2018-07-10T00:13:15.757Z,20.50
2018-07-10T00:15:43.595Z,20.60
2018-07-10T00:18:11.479Z,20.70
2018-07-10T00:20:39.593Z,20.60
2018-07-10T00:23:12.795Z,20.60
2018-07-10T00:25:44.250Z,20.60
2018-07-10T00:28:17.439Z,20.60
2018-07-10T00:30:50.426Z,20.50
2018-07-10T00:33:24.119Z,20.50
2018-07-10T00:35:56.608Z,20.50
2018-07-10T00:38:39.017Z,20.40
2018-07-10T00:41:10.980Z,20.30
2018-07-10T00:43:45.402Z,20.20
2018-07-10T00:46:13.468Z,20.20
2018-07-10T01:08:58.680Z,20.00
2018-07-10T01:14:03.527Z,19.90
2018-07-10T01:16:37.371Z,19.90
2018-07-10T01:19:23.458Z,19.80
2018-07-10T01:24:19.322Z,19.70
2018-07-10T01:26:54.503Z,19.80
2018-07-10T01:29:41.105Z,19.70
2018-07-10T01:49:34.484Z,19.60
2018-07-10T01:52:12.290Z,19.50
2018-07-10T02:12:07.309Z,19.40
2018-07-10T02:14:43.676Z,19.40
2018-07-10T02:17:17.384Z,19.30
2018-07-10T02:19:50.674Z,19.20
2018-07-10T02:22:28.478Z,19.10
2018-07-10T02:36:34.767Z,19.00
2018-07-10T02:39:02.829Z,19.00
2018-07-10T02:41:31.293Z,18.90
2018-07-10T02:44:02.946Z,18.80
2018-07-10T02:46:32.621Z,18.90
2018-07-10T02:49:08.917Z,18.80
2018-07-10T02:51:39.937Z,18.80
2018-07-10T02:54:08.609Z,18.70
2018-07-10T02:56:36.577Z,18.70
2018-07-10T02:59:04.762Z,18.80
2018-07-10T03:01:33.182Z,18.80
2018-07-10T03:04:01.454Z,18.80
2018-07-10T03:06:32.512Z,18.70
2018-07-10T03:09:00.856Z,18.70
2018-07-10T03:11:29.354Z,18.70
2018-07-10T03:13:57.654Z,18.70
2018-07-10T03:16:26.252Z,18.70
2018-07-10T03:18:54.627Z,18.70
2018-07-10T03:21:22.795Z,18.70
2018-07-10T03:23:51.161Z,18.70
2018-07-10T03:26:19.246Z,18.80
2018-07-10T03:28:47.138Z,18.80
2018-07-10T03:31:15.157Z,18.80
2018-07-10T03:33:43.740Z,18.80
2018-07-10T03:36:23.693Z,18.70
2018-07-10T03:38:51.825Z,18.70
2018-07-10T03:43:47.749Z,18.80
2018-07-10T03:52:12.328Z,18.80
2018-07-10T04:09:00.321Z,18.80
2018-07-10T04:11:28.255Z,18.80
2018-07-10T04:13:56.521Z,18.80
2018-07-10T04:16:24.542Z,18.80
2018-07-10T04:18:53.097Z,18.80
2018-07-10T04:21:24.105Z,18.70
2018-07-10T04:24:25.922Z,18.70
2018-07-10T04:27:10.425Z,18.80
2018-07-10T04:29:51.981Z,18.80
2018-07-10T04:32:21.613Z,18.80
2018-07-10T04:34:55.404Z,18.90
2018-07-10T04:37:28.294Z,19.00
2018-07-10T04:40:01.859Z,19.00
2018-07-10T04:45:11.530Z,19.00
2018-07-10T04:47:50.480Z,19.10
2018-07-10T04:51:04.833Z,19.10
2018-07-10T04:56:12.724Z,19.20
2018-07-10T05:06:21.322Z,19.20
2018-07-10T05:08:54.926Z,19.30
2018-07-10T05:11:27.706Z,19.40
2018-07-10T05:14:02.753Z,19.50
2018-07-10T05:16:35.318Z,19.50
2018-07-10T05:19:06.979Z,19.50
2018-07-10T05:21:40.587Z,19.60
2018-07-10T05:24:12.031Z,19.60
2018-07-10T05:26:45.015Z,19.90
2018-07-10T05:29:18.498Z,19.90
2018-07-10T05:31:47.704Z,20.00
2018-07-10T05:34:18.959Z,20.10
2018-07-10T05:36:52.331Z,20.10
2018-07-10T05:39:26.649Z,20.00
2018-07-10T05:42:00.276Z,20.00
2018-07-10T05:44:32.958Z,20.10
2018-07-10T05:47:06.774Z,20.10
2018-07-10T05:49:44.052Z,20.10
2018-07-10T05:54:47.444Z,20.20
2018-07-10T05:57:20.554Z,20.20
2018-07-10T05:59:49.830Z,20.30
2018-07-10T06:02:26.501Z,20.20
2018-07-10T06:04:58.266Z,20.50
2018-07-10T06:10:34.350Z,20.60
2018-07-10T06:13:03.390Z,20.60
2018-07-10T06:15:37.886Z,20.70
2018-07-10T06:18:06.189Z,20.80
2018-07-10T06:20:42.537Z,21.00
2018-07-10T06:23:11.293Z,21.10
2018-07-10T06:40:30.529Z,22.00
2018-07-10T06:43:38.608Z,22.20
2018-07-10T06:46:06.584Z,22.20
2018-07-10T06:48:36.925Z,22.30
2018-07-10T06:51:12.490Z,22.30
2018-07-10T06:53:41.966Z,22.30
2018-07-10T06:56:15.227Z,22.50
2018-07-10T07:16:03.252Z,22.60
2018-07-10T07:35:54.817Z,23.50
2018-07-10T07:38:24.038Z,23.60
2018-07-10T07:40:52.280Z,23.80
2018-07-10T07:43:21.212Z,23.90
2018-07-10T07:45:49.865Z,24.20
2018-07-10T07:48:17.757Z,24.30
2018-07-10T07:50:45.533Z,24.60
2018-07-10T07:53:13.480Z,24.90
2018-07-10T08:39:08.060Z,26.50
2018-07-10T08:41:45.894Z,26.40
2018-07-10T08:44:20.386Z,26.50
2018-07-10T08:46:54.503Z,26.70
2018-07-10T08:55:08.757Z,26.70
2018-07-10T08:57:36.659Z,26.70
2018-07-10T09:00:04.867Z,26.80
2018-07-10T09:02:32.782Z,26.80
2018-07-10T09:05:00.653Z,26.70
2018-07-10T09:07:28.614Z,26.80
2018-07-10T09:09:56.645Z,26.80
2018-07-10T09:12:24.609Z,26.80
2018-07-10T09:14:52.554Z,26.70
2018-07-10T09:17:20.909Z,26.60
2018-07-10T09:19:49.000Z,26.50
2018-07-10T09:22:16.893Z,26.40
2018-07-10T09:24:50.890Z,26.20
2018-07-10T09:27:26.918Z,26.10
2018-07-10T09:30:02.561Z,26.00
2018-07-10T09:32:35.889Z,25.90
2018-07-10T09:35:03.794Z,25.90
2018-07-10T09:37:40.723Z,25.80
2018-07-10T09:40:17.087Z,25.70
2018-07-10T09:43:05.330Z,25.60
2018-07-10T09:45:38.624Z,25.60
2018-07-10T09:48:12.200Z,25.60
2018-07-10T09:50:44.602Z,25.60
2018-07-10T09:53:16.789Z,25.60
2018-07-10T09:55:49.761Z,25.60
2018-07-10T10:01:27.357Z,25.60
2018-07-10T10:04:04.893Z,25.70
2018-07-10T10:09:36.584Z,25.80
2018-07-10T10:12:04.494Z,25.90
2018-07-10T10:14:34.385Z,25.90
2018-07-10T10:17:03.200Z,26.00
2018-07-10T10:19:33.357Z,26.00
2018-07-10T10:22:06.728Z,26.00
2018-07-10T10:27:29.264Z,26.20
2018-07-10T10:29:57.425Z,26.20
2018-07-10T10:32:25.280Z,26.40
2018-07-10T10:34:57.295Z,26.50
2018-07-10T10:37:30.904Z,26.60
2018-07-10T10:40:05.011Z,26.70
2018-07-10T10:42:36.155Z,26.80
2018-07-10T10:45:07.615Z,26.80
2018-07-10T10:47:38.652Z,26.80
2018-07-10T10:50:11.638Z,26.90
2018-07-10T10:52:44.934Z,27.00
2018-07-10T10:55:17.307Z,27.10
2018-07-10T10:57:50.702Z,27.20
2018-07-10T11:00:21.538Z,27.20
2018-07-10T11:02:54.185Z,27.30
2018-07-10T11:05:27.989Z,27.50
2018-07-10T11:08:00.908Z,27.70
2018-07-10T11:10:33.380Z,27.70
2018-07-10T11:13:07.288Z,27.80
2018-07-10T11:15:47.055Z,28.00
2018-07-10T11:18:36.206Z,28.10
2018-07-10T11:21:18.920Z,28.20
2018-07-10T11:23:58.980Z,28.50
2018-07-10T11:26:38.174Z,28.60
2018-07-10T11:29:12.319Z,28.60
2018-07-10T11:31:44.995Z,28.60
2018-07-10T11:37:12.994Z,28.70
2018-07-10T11:39:41.189Z,28.90
2018-07-10T11:42:09.081Z,28.80
2018-07-10T11:44:38.457Z,28.80
2018-07-10T11:47:06.348Z,28.80
2018-07-10T11:49:34.233Z,28.70
2018-07-10T11:52:02.189Z,28.80
2018-07-10T11:54:30.053Z,28.70
2018-07-10T11:57:06.213Z,28.70
2018-07-10T11:59:34.145Z,28.60
2018-07-10T12:02:02.161Z,28.60
2018-07-10T12:04:34.376Z,28.50
2018-07-10T12:07:03.228Z,28.40
2018-07-10T12:09:31.145Z,28.30
2018-07-10T12:12:08.791Z,28.30
2018-07-10T12:14:36.693Z,28.40
2018-07-10T12:17:04.658Z,28.70
2018-07-10T12:19:32.717Z,28.60
2018-07-10T12:22:00.569Z,28.60
2018-07-10T12:24:28.490Z,28.50
2018-07-10T12:26:56.385Z,28.60
2018-07-10T12:29:24.285Z,28.60
2018-07-10T12:31:52.237Z,28.80
2018-07-10T12:34:24.539Z,28.90
2018-07-10T12:36:56.325Z,28.90
2018-07-10T12:39:28.116Z,29.20
2018-07-10T12:42:01.901Z,29.20
2018-07-10T12:44:34.725Z,29.10
2018-07-10T12:47:06.823Z,28.70
2018-07-10T12:49:40.114Z,28.50
2018-07-10T12:52:08.041Z,28.10
2018-07-10T12:54:35.969Z,27.90
2018-07-10T12:57:03.897Z,27.70
2018-07-10T12:59:31.914Z,27.70
2018-07-10T13:01:59.821Z,27.60
2018-07-10T13:04:34.117Z,27.50
2018-07-10T13:07:02.101Z,27.40
2018-07-10T13:09:29.949Z,27.30
2018-07-10T13:11:57.993Z,27.50
2018-07-10T13:14:25.893Z,27.30
2018-07-10T13:16:53.745Z,27.10
2018-07-10T13:19:21.665Z,27.00
2018-07-10T13:21:49.594Z,26.90
2018-07-10T13:24:17.457Z,26.80
2018-07-10T13:26:45.366Z,26.70
2018-07-10T13:29:13.301Z,26.80
2018-07-10T13:31:41.153Z,26.60
2018-07-10T13:34:12.985Z,26.60
2018-07-10T13:36:45.247Z,26.50
2018-07-10T13:39:19.264Z,26.50
2018-07-10T13:41:51.538Z,26.40
2018-07-10T13:44:22.371Z,26.50
2018-07-10T13:46:53.370Z,26.50
2018-07-10T13:49:21.309Z,26.50
2018-07-10T13:51:49.268Z,26.50
2018-07-10T13:54:17.145Z,26.40
2018-07-10T13:56:45.048Z,26.30
2018-07-10T13:59:13.029Z,26.30
2018-07-10T14:01:40.986Z,26.20
2018-07-10T14:04:08.966Z,26.00
2018-07-10T14:06:36.849Z,26.10
2018-07-10T14:09:04.893Z,26.00
2018-07-10T14:11:32.980Z,25.80
2018-07-10T14:14:00.926Z,26.00
2018-07-10T14:16:28.805Z,25.90
2018-07-10T14:19:05.073Z,25.90
2018-07-10T14:21:33.043Z,25.70
2018-07-10T14:24:01.079Z,25.70
2018-07-10T14:26:29.041Z,25.60
2018-07-10T14:29:05.157Z,25.50
2018-07-10T14:31:33.069Z,25.70
2018-07-10T14:34:03.869Z,25.70
2018-07-10T14:36:37.382Z,25.60
2018-07-10T14:39:13.013Z,25.70
2018-07-10T14:41:54.792Z,25.70
2018-07-10T14:47:25.337Z,25.50
2018-07-10T14:49:53.586Z,25.70
2018-07-10T14:52:21.489Z,25.80
2018-07-10T14:54:49.433Z,25.90
2018-07-10T14:57:17.565Z,26.00
2018-07-10T14:59:45.401Z,26.10
2018-07-10T15:02:14.214Z,26.20
2018-07-10T15:04:42.132Z,26.20
2018-07-10T15:07:17.998Z,26.20
2018-07-10T15:09:45.877Z,26.20
2018-07-10T15:12:13.694Z,26.30
2018-07-10T15:14:41.883Z,26.30
2018-07-10T15:17:15.637Z,26.40
2018-07-10T15:19:44.586Z,26.50
2018-07-10T15:22:12.441Z,26.60
2018-07-10T15:24:40.773Z,26.70
2018-07-10T15:27:08.659Z,26.80
2018-07-10T15:29:44.137Z,26.50
2018-07-10T15:32:16.569Z,26.50
2018-07-10T15:34:50.788Z,26.50
2018-07-10T15:37:24.700Z,26.50
2018-07-10T15:42:49.090Z,26.60
2018-07-10T15:45:21.682Z,26.60
2018-07-10T15:47:54.282Z,26.50
2018-07-10T15:50:26.062Z,26.50
2018-07-10T15:52:59.409Z,26.40
2018-07-10T15:55:32.408Z,26.50
2018-07-10T15:58:05.281Z,26.40
2018-07-10T16:00:38.318Z,26.40
2018-07-10T16:03:10.333Z,26.60
2018-07-10T16:05:42.910Z,26.50
2018-07-10T16:08:16.822Z,26.40
2018-07-10T16:10:55.233Z,26.20
2018-07-10T16:13:29.760Z,26.10
2018-07-10T16:16:03.867Z,26.00
2018-07-10T16:18:35.840Z,25.90
2018-07-10T16:21:07.450Z,26.00
2018-07-10T16:33:38.616Z,25.80
2018-07-10T16:36:07.567Z,25.60
2018-07-10T16:38:36.291Z,25.50
2018-07-10T16:41:10.379Z,25.50
2018-07-10T16:43:38.349Z,25.40
2018-07-10T16:46:08.049Z,25.10
2018-07-10T16:48:44.862Z,25.10
2018-07-10T16:51:23.775Z,25.00
2018-07-10T16:54:01.676Z,24.90
2018-07-10T16:59:23.917Z,24.80
2018-07-10T17:02:00.822Z,24.70
2018-07-10T17:04:33.397Z,24.70
2018-07-10T17:07:03.757Z,24.80
2018-07-10T17:09:33.742Z,24.60
2018-07-10T17:12:02.394Z,24.50
2018-07-10T17:14:30.757Z,24.40
2018-07-10T17:16:59.183Z,24.40
2018-07-10T17:19:27.625Z,24.30
2018-07-10T17:21:55.964Z,24.30
2018-07-10T17:24:24.416Z,24.20
2018-07-10T17:26:52.876Z,24.20
2018-07-10T17:29:20.885Z,24.10
2018-07-10T17:31:51.311Z,23.90
2018-07-10T17:34:21.834Z,23.70
2018-07-10T17:36:52.256Z,23.70
2018-07-10T17:39:23.709Z,23.50
2018-07-10T17:41:52.074Z,23.40
2018-07-10T17:44:20.017Z,23.30
2018-07-10T17:46:55.874Z,23.20
2018-07-10T17:49:24.133Z,23.10
2018-07-10T17:51:52.486Z,23.10
2018-07-10T17:54:20.594Z,23.00
2018-07-10T17:56:48.629Z,23.00
2018-07-10T17:59:16.717Z,22.90
2018-07-10T18:01:44.810Z,22.90
2018-07-10T18:04:12.845Z,22.90
2018-07-10T18:06:57.347Z,22.90
2018-07-10T18:15:21.282Z,22.90
2018-07-10T18:17:49.962Z,22.80
2018-07-10T18:20:30.601Z,22.80
2018-07-10T18:22:58.655Z,22.90
2018-07-10T18:25:27.078Z,22.80
2018-07-10T18:27:54.941Z,22.70
2018-07-10T18:30:22.933Z,22.70
2018-07-10T18:32:50.879Z,22.60
2018-07-10T18:35:18.781Z,22.50
2018-07-10T18:37:47.008Z,22.50
2018-07-10T18:40:14.853Z,22.40
2018-07-10T18:42:42.794Z,22.70
2018-07-10T18:45:10.870Z,22.70
2018-07-10T18:47:39.177Z,22.50
2018-07-10T18:50:07.112Z,22.20
2018-07-10T18:52:35.336Z,22.40
2018-07-10T18:55:04.566Z,22.50
2018-07-10T18:57:43.881Z,22.30
2018-07-10T19:00:34.689Z,22.20
2018-07-10T19:03:09.589Z,21.90
2018-07-10T19:05:43.353Z,21.80
2018-07-10T19:08:11.341Z,21.70
2018-07-10T19:10:39.748Z,21.60
2018-07-10T19:13:07.684Z,21.50
2018-07-10T19:21:22.336Z,21.30
2018-07-10T19:23:51.383Z,21.20
2018-07-10T19:26:22.221Z,21.20
2018-07-10T19:28:50.845Z,21.20
2018-07-10T19:31:27.533Z,21.20
2018-07-10T19:33:56.065Z,21.30
2018-07-10T19:36:24.515Z,21.20
2018-07-10T19:38:52.669Z,21.20
2018-07-10T19:41:21.583Z,21.20
2018-07-10T19:43:51.155Z,21.10
2018-07-10T19:46:19.093Z,21.10
2018-07-10T19:48:50.941Z,21.10
2018-07-10T19:54:26.589Z,21.20
2018-07-10T19:56:58.057Z,21.10
2018-07-10T19:59:26.101Z,21.10
2018-07-10T20:01:59.784Z,21.00
2018-07-10T20:05:02.187Z,21.00
2018-07-10T20:07:41.181Z,20.90
2018-07-10T20:10:50.072Z,20.90
2018-07-10T20:13:36.023Z,20.90
2018-07-10T20:16:09.201Z,20.90
2018-07-10T20:18:51.641Z,21.00
2018-07-10T20:21:31.695Z,20.80
2018-07-10T20:24:27.988Z,20.80
2018-07-10T20:27:01.302Z,20.80
2018-07-10T20:29:42.809Z,20.80
2018-07-10T20:32:18.972Z,20.80
2018-07-10T20:34:56.700Z,20.80
2018-07-10T20:37:30.131Z,20.80
2018-07-10T20:40:00.067Z,20.80
2018-07-10T20:42:37.139Z,20.90
2018-07-10T20:55:54.197Z,20.80
2018-07-10T20:58:26.645Z,20.80
2018-07-10T21:01:05.337Z,20.80
2018-07-10T21:03:51.260Z,20.80
2018-07-10T21:06:32.549Z,20.80
2018-07-10T21:09:06.423Z,20.70
2018-07-10T21:11:41.934Z,20.70
2018-07-10T21:14:19.189Z,20.60
2018-07-10T21:17:10.938Z,20.70
2018-07-10T21:20:00.269Z,20.70
2018-07-10T21:24:41.293Z,20.60
2018-07-10T21:30:18.131Z,20.60
2018-07-10T21:32:55.895Z,20.60
2018-07-10T21:35:27.036Z,20.60
2018-07-10T21:39:29.339Z,20.60
2018-07-10T21:42:21.978Z,20.60
2018-07-10T21:45:34.121Z,20.50
2018-07-10T21:48:20.569Z,20.50
2018-07-10T21:50:51.857Z,20.50
2018-07-10T21:53:20.068Z,20.40
2018-07-10T21:55:48.218Z,20.40
2018-07-10T21:58:17.646Z,20.40
2018-07-10T22:02:00.705Z,20.40
2018-07-10T22:04:31.620Z,20.30
2018-07-10T22:07:00.989Z,20.30
2018-07-10T22:09:29.622Z,20.30
2018-07-10T22:12:09.304Z,20.30
2018-07-10T22:14:37.233Z,20.40
2018-07-10T22:17:12.325Z,20.30
2018-07-10T22:19:41.221Z,20.20
2018-07-10T22:22:09.131Z,20.20
2018-07-10T22:24:37.521Z,20.20
2018-07-10T22:27:05.361Z,20.20
2018-07-10T22:29:38.742Z,20.20
2018-07-10T22:32:12.256Z,20.10
2018-07-10T22:34:42.861Z,20.10
2018-07-10T22:37:11.889Z,20.10
2018-07-10T22:39:40.221Z,20.00
2018-07-10T22:42:08.131Z,20.00
2018-07-10T22:44:37.849Z,20.00
2018-07-10T22:47:10.723Z,20.00
2018-07-10T22:49:45.017Z,20.00
2018-07-10T22:52:18.829Z,19.90
2018-07-10T22:54:51.427Z,19.80
2018-07-10T22:57:23.592Z,19.70
2018-07-10T22:59:57.266Z,19.70
2018-07-10T23:02:31.204Z,19.60
2018-07-10T23:05:02.038Z,19.60
2018-07-10T23:07:34.701Z,19.50
2018-07-10T23:10:06.610Z,19.50
2018-07-10T23:12:51.457Z,19.40
2018-07-10T23:18:16.569Z,19.40
2018-07-10T23:21:02.149Z,19.40
2018-07-10T23:34:25.956Z,19.40
2018-07-10T23:37:04.368Z,19.30
2018-07-10T23:39:42.577Z,19.30
2018-07-10T23:42:17.952Z,19.40
2018-07-10T23:44:47.484Z,19.30
2018-07-10T23:47:26.567Z,19.20
2018-07-10T23:50:02.901Z,19.20
2018-07-10T23:52:44.152Z,19.20
2018-07-10T23:55:12.203Z,19.20
2018-07-10T23:57:44.592Z,19.10
